createdAt,value
2023-04-09T08:01:10.124Z,0.50
2023-04-09T08:02:11.638Z,0.50
2023-04-09T08:03:10.314Z,0.50
2023-04-09T08:04:10.276Z,0.50
2023-04-09T08:05:10.141Z,0.50
2023-04-09T08:06:10.098Z,0.50
2023-04-09T08:07:10.128Z,0.34
2023-04-09T08:08:10.117Z,0.34
2023-04-09T08:09:10.081Z,0.34
2023-04-09T08:10:10.047Z,0.34
2023-04-09T08:11:10.074Z,0.34
2023-04-09T08:12:10.071Z,0.34
2023-04-09T08:13:11.877Z,0.34
2023-04-09T08:14:10.053Z,0.34
2023-04-09T08:15:10.063Z,0.34
2023-04-09T08:16:10.040Z,0.34
2023-04-09T08:17:10.036Z,0.34
2023-04-09T08:18:10.091Z,0.34
2023-04-09T08:19:10.010Z,0.34
2023-04-09T08:20:10.004Z,0.34
2023-04-09T08:21:10.009Z,0.34
2023-04-09T08:22:10.038Z,0.34
2023-04-09T08:23:10.123Z,0.34
2023-04-09T08:24:10.158Z,0.34
2023-04-09T08:25:10.205Z,0.34
2023-04-09T08:26:10.264Z,0.37
2023-04-09T08:27:10.309Z,0.44
2023-04-09T08:28:10.356Z,0.50
2023-04-09T08:29:10.405Z,0.50
2023-04-09T08:30:10.464Z,0.50
2023-04-09T08:31:10.481Z,0.50
2023-04-09T08:32:10.572Z,0.50
2023-04-09T08:33:10.598Z,0.50
2023-04-09T08:34:10.643Z,0.50
2023-04-09T08:35:10.706Z,0.50
2023-04-09T08:36:10.765Z,0.50
2023-04-09T08:37:10.780Z,0.50
2023-04-09T08:38:10.846Z,0.50
2023-04-09T08:39:10.873Z,0.50
2023-04-09T08:40:10.915Z,0.50
2023-04-09T08:41:11.345Z,0.51
2023-04-09T08:42:10.996Z,0.51
2023-04-09T08:43:11.079Z,0.51
2023-04-09T08:44:11.087Z,0.50
2023-04-09T08:45:11.166Z,0.51
2023-04-09T08:46:11.234Z,0.51
2023-04-09T08:47:11.234Z,0.50
2023-04-09T08:48:11.331Z,0.51
2023-04-09T08:49:11.302Z,0.50
2023-04-09T08:50:11.345Z,0.50
2023-04-09T08:51:11.349Z,0.50
2023-04-09T08:52:11.416Z,0.50
2023-04-09T08:53:11.437Z,0.50
2023-04-09T08:54:11.517Z,0.51
2023-04-09T08:55:11.573Z,0.50
2023-04-09T08:56:11.560Z,0.50
2023-04-09T08:57:11.621Z,0.51
2023-04-09T08:58:11.656Z,0.50
2023-04-09T08:59:11.694Z,0.50
2023-04-09T09:00:11.777Z,0.51
2023-04-09T09:01:12.519Z,0.51
2023-04-09T09:02:12.298Z,0.50
2023-04-09T09:03:11.898Z,0.52
2023-04-09T09:04:11.869Z,0.51
2023-04-09T09:05:11.916Z,0.51
2023-04-09T09:06:11.952Z,0.51
2023-04-09T09:07:11.990Z,0.51
2023-04-09T09:08:12.007Z,0.51
2023-04-09T09:09:12.067Z,0.52
2023-04-09T09:10:12.083Z,0.51
2023-04-09T09:11:12.113Z,0.51
2023-04-09T09:12:12.156Z,0.50
2023-04-09T09:13:12.157Z,0.50
2023-04-09T09:14:12.191Z,0.51
2023-04-09T09:15:12.221Z,0.52
2023-04-09T09:16:12.322Z,0.52
2023-04-09T09:17:12.356Z,0.52
2023-04-09T09:18:12.309Z,0.51
2023-04-09T09:19:12.347Z,0.51
2023-04-09T09:20:12.391Z,0.51
2023-04-09T09:21:12.413Z,0.51
2023-04-09T09:22:12.417Z,0.52
2023-04-09T09:23:12.468Z,0.51
2023-04-09T09:24:12.461Z,0.51
2023-04-09T09:25:12.516Z,0.52
2023-04-09T09:26:12.507Z,0.50
2023-04-09T09:27:12.562Z,0.51
2023-04-09T09:28:12.573Z,0.51
2023-04-09T09:29:12.603Z,0.51
2023-04-09T09:30:12.660Z,0.51
2023-04-09T09:31:12.677Z,0.51
2023-04-09T09:32:12.680Z,0.51
2023-04-09T09:33:12.696Z,0.50
2023-04-09T09:34:12.703Z,0.52
2023-04-09T09:35:12.753Z,0.50
2023-04-09T09:36:12.847Z,0.51
2023-04-09T09:37:12.777Z,0.52
2023-04-09T09:38:12.805Z,0.51
2023-04-09T09:39:12.840Z,0.52
2023-04-09T09:40:12.861Z,0.52
2023-04-09T09:41:12.860Z,0.51
2023-04-09T09:42:12.899Z,0.51
2023-04-09T09:43:14.510Z,0.51
2023-04-09T09:44:12.938Z,0.51
2023-04-09T09:45:12.923Z,0.52
2023-04-09T09:46:12.983Z,0.51
2023-04-09T09:47:12.955Z,0.51
2023-04-09T09:48:13.021Z,0.51
2023-04-09T09:49:13.006Z,0.50
2023-04-09T09:50:13.025Z,0.51
2023-04-09T09:51:13.051Z,0.51
2023-04-09T09:52:13.066Z,0.51
2023-04-09T09:53:13.085Z,0.50
2023-04-09T09:54:13.092Z,0.51
2023-04-09T09:55:13.126Z,0.52
2023-04-09T09:56:13.147Z,0.51
2023-04-09T09:57:13.169Z,0.52
2023-04-09T09:58:13.170Z,0.52
2023-04-09T09:59:13.202Z,0.51
2023-04-09T10:00:13.173Z,0.52
2023-04-09T10:01:13.274Z,0.52
2023-04-09T10:02:13.405Z,0.52
2023-04-09T10:03:13.316Z,0.51
2023-04-09T10:04:13.275Z,0.52
2023-04-09T10:05:13.275Z,0.51
2023-04-09T10:06:13.292Z,0.51
2023-04-09T10:07:13.278Z,0.51
2023-04-09T10:08:13.320Z,0.51
2023-04-09T10:09:13.320Z,0.51
2023-04-09T10:10:13.365Z,0.53
2023-04-09T10:11:13.388Z,0.52
2023-04-09T10:12:13.347Z,0.51
2023-04-09T10:13:13.367Z,0.51
2023-04-09T10:14:13.382Z,0.52
2023-04-09T10:15:13.383Z,0.52
2023-04-09T10:16:13.525Z,0.52
2023-04-09T10:17:13.377Z,0.52
2023-04-09T10:18:13.421Z,0.51
2023-04-09T10:19:21.938Z,0.52
2023-04-09T10:20:13.557Z,0.52
2023-04-09T10:21:13.565Z,0.52
2023-04-09T10:22:13.611Z,0.52
2023-04-09T10:23:13.648Z,0.52
2023-04-09T10:24:13.653Z,0.52
2023-04-09T10:25:13.725Z,0.51
2023-04-09T10:26:13.720Z,0.51
2023-04-09T10:27:15.990Z,0.52
2023-04-09T10:28:13.746Z,0.52
2023-04-09T10:29:13.712Z,0.52
2023-04-09T10:30:13.755Z,0.51
2023-04-09T10:31:13.767Z,0.51
2023-04-09T10:32:13.751Z,0.52
2023-04-09T10:33:13.708Z,0.52
2023-04-09T10:34:13.703Z,0.52
2023-04-09T10:35:13.664Z,0.52
2023-04-09T10:36:13.684Z,0.51
2023-04-09T10:37:13.685Z,0.51
2023-04-09T10:38:13.694Z,0.51
2023-04-09T10:39:13.683Z,0.51
2023-04-09T10:40:13.692Z,0.52
2023-04-09T10:41:13.630Z,0.52
2023-04-09T10:42:13.625Z,0.52
2023-04-09T10:43:13.665Z,0.51
2023-04-09T10:44:13.610Z,0.53
2023-04-09T10:45:13.619Z,0.52
2023-04-09T10:46:13.653Z,0.51
2023-04-09T10:47:13.613Z,0.52
2023-04-09T10:48:13.628Z,0.52
2023-04-09T10:49:13.646Z,0.52
2023-04-09T10:50:13.692Z,0.52
2023-04-09T10:51:13.586Z,0.53
2023-04-09T10:52:13.584Z,0.52
2023-04-09T10:53:13.595Z,0.51
2023-04-09T10:54:13.577Z,0.53
2023-04-09T10:55:13.546Z,0.52
2023-04-09T10:56:13.542Z,0.53
2023-04-09T10:57:13.646Z,0.52
2023-04-09T10:58:14.040Z,0.52
2023-04-09T10:59:13.502Z,0.54
2023-04-09T11:00:13.555Z,0.52
2023-04-09T11:01:13.531Z,0.53
2023-04-09T11:02:13.661Z,0.53
2023-04-09T11:03:13.674Z,0.53
2023-04-09T11:04:13.518Z,0.53
2023-04-09T11:05:13.474Z,0.54
2023-04-09T11:06:13.479Z,0.52
2023-04-09T11:07:13.490Z,0.52
2023-04-09T11:08:13.428Z,0.53
2023-04-09T11:09:13.455Z,0.53
2023-04-09T11:10:13.516Z,0.52
2023-04-09T11:11:13.444Z,0.52
2023-04-09T11:12:13.446Z,0.54
2023-04-09T11:13:13.569Z,0.52
2023-04-09T11:14:13.426Z,0.53
2023-04-09T11:15:13.375Z,0.53
2023-04-09T11:16:24.350Z,0.53
2023-04-09T11:17:14.404Z,0.53
2023-04-09T11:18:13.358Z,0.53
2023-04-09T11:19:13.378Z,0.53
2023-04-09T11:20:13.456Z,0.53
2023-04-09T11:21:13.370Z,0.54
2023-04-09T11:22:13.355Z,0.54
2023-04-09T11:23:13.339Z,0.54
2023-04-09T11:24:13.336Z,0.53
2023-04-09T11:25:13.330Z,0.54
2023-04-09T11:26:13.379Z,0.54
2023-04-09T11:27:13.409Z,0.54
2023-04-09T11:28:13.492Z,0.53
2023-04-09T11:29:13.568Z,0.53
2023-04-09T11:30:13.643Z,0.53
2023-04-09T11:31:13.782Z,0.53
2023-04-09T11:32:13.724Z,0.53
2023-04-09T11:33:13.779Z,0.54
2023-04-09T11:34:13.843Z,0.53
2023-04-09T11:35:13.932Z,0.53
2023-04-09T11:36:14.011Z,0.53
2023-04-09T11:37:14.049Z,0.54
2023-04-09T11:38:14.107Z,0.54
2023-04-09T11:39:14.172Z,0.53
2023-04-09T11:40:14.350Z,0.53
2023-04-09T11:41:14.281Z,0.53
2023-04-09T11:42:14.365Z,0.53
2023-04-09T11:43:14.399Z,0.53
2023-04-09T11:44:14.491Z,0.53
2023-04-09T11:45:14.519Z,0.53
2023-04-09T11:46:14.581Z,0.54
2023-04-09T11:47:14.648Z,0.53
2023-04-09T11:48:14.707Z,0.52
2023-04-09T11:49:14.793Z,0.54
2023-04-09T11:50:14.795Z,0.54
2023-04-09T11:51:14.910Z,0.53
2023-04-09T11:52:14.952Z,0.53
2023-04-09T11:53:15.004Z,0.54
2023-04-09T11:54:15.078Z,0.53
2023-04-09T11:55:15.103Z,0.53
2023-04-09T11:56:15.149Z,0.53
2023-04-09T11:57:15.239Z,0.54
2023-04-09T11:58:15.271Z,0.54
2023-04-09T11:59:15.356Z,0.54
2023-04-09T12:00:15.490Z,0.54
2023-04-09T12:01:15.466Z,0.54
2023-04-09T12:02:15.550Z,0.54
2023-04-09T12:03:15.866Z,0.55
2023-04-09T12:04:15.846Z,0.54
2023-04-09T12:05:15.804Z,0.54
2023-04-09T12:06:15.722Z,0.54
2023-04-09T12:07:15.822Z,0.54
2023-04-09T12:08:15.855Z,0.55
2023-04-09T12:09:15.902Z,0.55
2023-04-09T12:10:15.957Z,0.55
2023-04-09T12:11:16.007Z,0.55
2023-04-09T12:12:16.113Z,0.55
2023-04-09T12:13:16.119Z,0.56
2023-04-09T12:14:16.112Z,0.55
2023-04-09T12:15:16.172Z,0.55
2023-04-09T12:16:16.234Z,0.55
2023-04-09T12:17:16.270Z,0.56
2023-04-09T12:18:16.326Z,0.57
2023-04-09T12:19:16.379Z,0.56
2023-04-09T12:20:16.466Z,0.57
2023-04-09T12:21:18.130Z,0.57
2023-04-09T12:22:16.469Z,0.56
2023-04-09T12:23:16.487Z,0.57
2023-04-09T12:24:16.445Z,0.58
2023-04-09T12:25:16.426Z,0.58
2023-04-09T12:26:16.438Z,0.58
2023-04-09T12:27:16.427Z,0.57
2023-04-09T12:28:16.418Z,0.57
2023-04-09T12:29:16.420Z,0.56
2023-04-09T12:30:16.448Z,0.55
2023-04-09T12:31:16.383Z,0.55
2023-04-09T12:32:16.407Z,0.55
2023-04-09T12:33:16.376Z,0.54
2023-04-09T12:34:16.389Z,0.53
2023-04-09T12:35:16.344Z,0.53
2023-04-09T12:36:16.345Z,0.54
2023-04-09T12:37:16.353Z,0.53
2023-04-09T12:38:16.337Z,0.53
2023-04-09T12:39:16.326Z,0.52
2023-04-09T12:40:16.317Z,0.54
2023-04-09T12:41:16.336Z,0.54
2023-04-09T12:42:16.290Z,0.53
2023-04-09T12:43:16.273Z,0.53
2023-04-09T12:44:16.297Z,0.53
2023-04-09T12:45:16.292Z,0.52
2023-04-09T12:46:16.299Z,0.52
2023-04-09T12:47:16.294Z,0.53
2023-04-09T12:48:16.242Z,0.52
2023-04-09T12:49:16.253Z,0.51
2023-04-09T12:50:16.316Z,0.53
2023-04-09T12:51:16.255Z,0.53
2023-04-09T12:52:16.244Z,0.53
2023-04-09T12:53:16.257Z,0.53
2023-04-09T12:54:16.226Z,0.53
2023-04-09T12:55:16.238Z,0.51
2023-04-09T12:56:16.226Z,0.53
2023-04-09T12:57:16.210Z,0.52
2023-04-09T12:58:16.210Z,0.53
2023-04-09T12:59:16.202Z,0.53
2023-04-09T13:00:16.175Z,0.52
